Trout Dale, Virginia
Current Conditions -  °F | °C
As of 3:55 AM on Friday 24 Oct 2014 (Local Time) from KMKJ Reporting Station
Haze Haze  
Wind Chill: 31°   Ceiling: Unl
Heat Index: 36°   Visibility: 4mi
Dew Point: 35°   Wind: 7mph
Humidity: 95%   Direction: 260°W
Pressure: 30.13"   Gusts: NA
Location:  36.7°N, 81.44°W
Report Text: KMKJ 240755Z AUTO 26006KT 4SM BR CLR 02/02 A3013 RMK AO2 T00230016
Loading
Personal Weather Stations






























Interactive Weather Map
Tropical Storm Tracking
New forecast layout! Learn more

10-Day Weather Forecast

Advertisements
Track Severe Weather on mobile